Terminal Aerodrome Forecast
Issued by NWS

Home | Current Version | Previous Version | Text Only | Print | Product List | Glossary On
Versions: 1 2 3 4 5 6 7 8 9 10 11 12 13
000
FTUS46 KMTR 050531
TAFOAK
TAF
KOAK 050531Z 0506/0612 28009KT P6SM FEW015 SCT250
      TEMPO 0510/0514 BKN008
     FM052000 29012KT P6SM FEW015 SCT250
     FM060300 29009KT P6SM FEW015 SCT250=

USA.gov is the U.S. government's official web portal to all federal, state and local government web resources and services.